KLAS/LAS METAR and TAF weather

Enter ICAO airport designator
Station Type Date Time Source
KLAS METAR 2019/02/21 11:56 UTC NOAA

KLAS 211156Z 00000KT 6SM -SN BR SCT004 BKN009 OVC026 02/01 A2955 RMK AO2 SNB17E29B46 SLP009 P0000 60011 70029 T00170006 10017 20006 58015


Station Type Date Time Source
KLAS Decoded METAR 2019/02/21 11:56 UTC NOAA

MCCARRAN INTERNATIONAL AIRPORT , NV, United States (KLAS) 36-07N 115-16W 636M
Feb 21, 2019 - 06:56 AM EST / 2019.02.21 1156 UTC
Wind: Calm:0
Visibility: 6 mile(s):0
Sky conditions: overcast
Weather: light snow; mist
Precipitation last hour: A trace
Temperature: 35.1 F (1.7 C)
Dew Point: 33.1 F (0.6 C)
Relative Humidity: 92%
Pressure (altimeter): 29.55 in. Hg (1000 hPa)
Pressure tendency: 0.04 inches (1.5 hPa) lower than three hours ago
ob: KLAS 211156Z 00000KT 6SM -SN BR SCT004 BKN009 OVC026 02/01 A2955 RMK AO2 SNB17E29B46 SLP009 P0000 60011 70029 T00170006 10017 20006 58015
cycle: 12

Station Type Date Time Source
KLAS TAF 2019/02/21 12:22 UTC NOAA

TAF KLAS 211120Z 2112/2218 34005KT 3SM -SN BR OVC003
FM211500 VRB05KT 6SM -SN BR SCT010 OVC030
FM211800 29008KT P6SM VCSH FEW010 OVC035
FM220300 24006KT P6SM VCSH SCT030 OVC050
FM220800 32008KT P6SM VCSH SCT030 OVC050
FM221300 33012G22KT P6SM SCT050


Example: see airport list